^^
Datos históricos de la estación: Murcia-Puente Tocinos
Diario Informe para Febrero 8, 2019 Unidades:  Métrico    Ingés   Ambas
Diario Semanal Mensual Anual
  Máxima: Mínima: Promedio:
Temperatura: 25.1 °C 18.3 °C 22.1 °C
Punto de rocio: 16.2 °C 11.2 °C 14 °C
Humedad: 80% 47.7% 61%
Velocidad viento: 25.6km/h 0km/h 10.9km/h
Racha viento: 46.7km/h - -
Viento- - Este
Presión: 1018.7 hPa 1015.9 hPa -
Precipitación: 0.0 mm    
 
 
Tabla de datos para Febrero 8, 2019
Hora Temperatura Punto de rocio Presión Viento Velocidad viento Racha viento Humedad Intensidad lluvia(por hora) Nubes
00:04 20.9 °C 14.8 °C 1016.6 hPa NE 10.3 km/h 16.1 km/h 68.1% 0.0 mm
00:09 20.9 °C 15 °C 1016.6 hPa NE 9.7 km/h 14.8 km/h 69% 0.0 mm
00:14 20.8 °C 15.1 °C 1016.6 hPa NNE 8.7 km/h 14.5 km/h 69.7% 0.0 mm
00:19 20.8 °C 15.2 °C 1016.7 hPa NE 9.2 km/h 14.8 km/h 70.5% 0.0 mm
00:24 20.8 °C 15.3 °C 1016.7 hPa NE 10 km/h 14.8 km/h 71% 0.0 mm
00:29 20.7 °C 15.4 °C 1016.7 hPa NE 9.5 km/h 14.5 km/h 71.5% 0.0 mm
00:34 20.7 °C 15.4 °C 1016.8 hPa NE 8.7 km/h 12.9 km/h 72% 0.0 mm
00:39 20.6 °C 15.5 °C 1016.8 hPa NE 8 km/h 11.9 km/h 72.5% 0.0 mm
00:44 20.6 °C 15.6 °C 1016.8 hPa NE 6.9 km/h 11.3 km/h 73% 0.0 mm
00:49 20.6 °C 15.6 °C 1016.8 hPa NE 6.7 km/h 11.1 km/h 73% 0.0 mm
00:54 20.6 °C 15.6 °C 1016.8 hPa NE 6.5 km/h 11.3 km/h 73.1% 0.0 mm
00:59 20.6 °C 15.8 °C 1016.8 hPa NE 5.9 km/h 9.5 km/h 74% 0.0 mm
01:04 20.6 °C 15.8 °C 1016.8 hPa NE 5 km/h 9.7 km/h 74% 0.0 mm
01:09 20.6 °C 15.8 °C 1016.6 hPa NNE 5.3 km/h 9.7 km/h 74% 0.0 mm
01:14 20.4 °C 15.7 °C 1016.6 hPa NNE 5.8 km/h 9.7 km/h 74.3% 0.0 mm
01:19 20.3 °C 15.8 °C 1016.7 hPa NNE 6 km/h 16.7 km/h 75.1% 0.0 mm
01:24 20.2 °C 15.9 °C 1016.7 hPa NNE 6.9 km/h 16.7 km/h 76% 0.0 mm
01:29 20.2 °C 15.9 °C 1016.7 hPa North 6.9 km/h 16.1 km/h 76.5% 0.0 mm
01:34 20 °C 15.9 °C 1016.7 hPa NE 10.1 km/h 14.5 km/h 77.2% 0.0 mm
01:39 20 °C 16.1 °C 1016.7 hPa NE 10 km/h 14.5 km/h 78% 0.0 mm
01:44 20.1 °C 16 °C 1016.7 hPa NE 9.5 km/h 14.5 km/h 77.1% 0.0 mm
01:49 20 °C 16 °C 1016.8 hPa NE 9.4 km/h 12.9 km/h 77.5% 0.0 mm
01:54 20 °C 16 °C 1016.8 hPa NE 8.4 km/h 11.3 km/h 78% 0.0 mm
01:59 19.9 °C 16 °C 1016.8 hPa NE 8.4 km/h 13 km/h 78% 0.0 mm
02:04 19.9 °C 16 °C 1016.9 hPa NE 8.4 km/h 12.9 km/h 78% 0.0 mm
02:09 19.9 °C 15.9 °C 1016.9 hPa NE 7.9 km/h 9.7 km/h 78% 0.0 mm
02:14 19.9 °C 15.9 °C 1016.9 hPa NNE 6.5 km/h 9.7 km/h 78% 0.0 mm
02:19 19.8 °C 15.8 °C 1017.0 hPa NNE 5.9 km/h 9.7 km/h 78% 0.0 mm
02:24 19.7 °C 15.8 °C 1017.0 hPa North 5 km/h 8 km/h 78% 0.0 mm
02:29 19.7 °C 15.8 °C 1017.0 hPa NNO 4.6 km/h 8 km/h 78% 0.0 mm
02:34 19.7 °C 15.8 °C 1017.0 hPa NNO 3.9 km/h 6.4 km/h 78% 0.0 mm
02:39 19.7 °C 15.8 °C 1017.0 hPa NNO 3.2 km/h 4.8 km/h 78% 0.0 mm
02:44 19.7 °C 15.8 °C 1017.0 hPa NNO 2.2 km/h 4.8 km/h 78% 0.0 mm
02:49 19.7 °C 15.8 °C 1017.0 hPa NNO 1.4 km/h 7.4 km/h 78.3% 0.0 mm
02:54 19.7 °C 15.9 °C 1017.0 hPa Calm   8 km/h 79% 0.0 mm
02:59 19.7 °C 15.9 °C 1017.0 hPa Calm   3.2 km/h 79% 0.0 mm
03:04 19.7 °C 15.9 °C 1017.0 hPa Calm     79% 0.0 mm
03:09 19.6 °C 15.8 °C 1016.9 hPa Calm   5 km/h 79% 0.0 mm
03:14 19.6 °C 16 °C 1016.9 hPa Calm   5.6 km/h 79.9% 0.0 mm
03:19 19.6 °C 16.1 °C 1016.9 hPa OSO 0.9 km/h 4.8 km/h 80% 0.0 mm
03:24 19.6 °C 16.1 °C 1016.8 hPa OSO 2.2 km/h 1.6 km/h 80% 0.0 mm
03:29 19.6 °C 16.1 °C 1016.8 hPa OSO 1.4 km/h 3.9 km/h 80% 0.0 mm
03:34 19.6 °C 16.1 °C 1016.8 hPa Calm   3.2 km/h 80% 0.0 mm
03:39 19.7 °C 16.2 °C 1016.7 hPa Calm     80% 0.0 mm
03:44 19.7 °C 16.2 °C 1016.7 hPa Calm   5 km/h 80% 0.0 mm
03:49 19.7 °C 16.1 °C 1016.7 hPa Calm   5.8 km/h 79.7% 0.0 mm
03:54 19.7 °C 15.9 °C 1016.6 hPa Calm   6.4 km/h 79% 0.0 mm
03:59 19.7 °C 16 °C 1016.6 hPa Oeste 1 km/h 4.8 km/h 79% 0.0 mm
04:04 19.7 °C 16 °C 1016.6 hPa Oeste 2.2 km/h   79% 0.0 mm
04:09 19.8 °C 16.1 °C 1016.5 hPa SO 1.3 km/h 7.6 km/h 79% 0.0 mm
04:14 19.8 °C 16 °C 1016.5 hPa Calm   8 km/h 78.7% 0.0 mm
04:19 19.8 °C 15.8 °C 1016.5 hPa SSE 1.3 km/h 7.4 km/h 77.9% 0.0 mm
04:24 19.8 °C 15.5 °C 1016.5 hPa SE 3.2 km/h 8 km/h 76.2% 0.0 mm
04:29 19.7 °C 15.1 °C 1016.5 hPa SE 3.8 km/h 9.5 km/h 74.6% 0.0 mm
04:34 19.6 °C 14.8 °C 1016.9 hPa SE 4.7 km/h 9.7 km/h 74% 0.0 mm
04:39 19.3 °C 14.6 °C 1016.9 hPa SSE 5.1 km/h 9.7 km/h 74% 0.0 mm
04:44 19.2 °C 14.5 °C 1016.9 hPa Sur 5.8 km/h 13 km/h 74% 0.0 mm
04:49 19.1 °C 14.3 °C 1016.9 hPa SSO 6.2 km/h 12.9 km/h 73.5% 0.0 mm
04:54 19.1 °C 14.2 °C 1016.7 hPa Sur 6.9 km/h 9.7 km/h 73% 0.0 mm
04:59 19.2 °C 14.2 °C 1016.7 hPa Sur 6 km/h 9.7 km/h 73% 0.0 mm
05:04 19.2 °C 14.2 °C 1016.7 hPa Sur 4.7 km/h 8.4 km/h 72.6% 0.0 mm
05:09 19.3 °C 14 °C 1016.7 hPa SSE 4 km/h 8 km/h 71.5% 0.0 mm
05:14 19.3 °C 13.9 °C 1016.7 hPa Sur 2.9 km/h 8 km/h 71% 0.0 mm
05:19 19.3 °C 13.7 °C 1016.8 hPa Sur 3.3 km/h 8 km/h 70.1% 0.0 mm
05:24 19.3 °C 13.6 °C 1016.8 hPa Sur 3.9 km/h 7.4 km/h 69.6% 0.0 mm
05:29 19.3 °C 13.5 °C 1016.8 hPa Sur 2.3 km/h 8 km/h 69.2% 0.0 mm
05:34 19.2 °C 13.4 °C 1016.8 hPa Calm   5.8 km/h 68.9% 0.0 mm
05:39 19.2 °C 13.2 °C 1016.8 hPa SSE 1.1 km/h 6.4 km/h 68% 0.0 mm
05:44 19.2 °C 13.2 °C 1016.8 hPa SSO 2.9 km/h 5.8 km/h 68.6% 0.0 mm
05:49 19.1 °C 13.6 °C 1016.9 hPa SO 2.9 km/h 6.4 km/h 70.3% 0.0 mm
05:54 19.1 °C 13.6 °C 1016.9 hPa SO 2.9 km/h 3.7 km/h 70.5% 0.0 mm
05:59 18.9 °C 13.1 °C 1016.9 hPa SE 2.6 km/h 7.6 km/h 68.9% 0.0 mm
06:04 18.8 °C 12.6 °C 1017.1 hPa ENE 2.2 km/h 8 km/h 67.4% 0.0 mm
06:09 18.7 °C 12.4 °C 1017.1 hPa ENE 1.4 km/h 2.3 km/h 67% 0.0 mm
06:14 18.6 °C 12.1 °C 1017.1 hPa Calm   5.8 km/h 66.3% 0.0 mm
06:19 18.4 °C 12.2 °C 1017.1 hPa SSE 1.1 km/h 6.4 km/h 67.1% 0.0 mm
06:24 18.5 °C 12.4 °C 1017.0 hPa SSE 2.9 km/h 7.4 km/h 67.9% 0.0 mm
06:29 18.5 °C 12.2 °C 1017.0 hPa SE 3 km/h 8 km/h 66.9% 0.0 mm
06:34 18.5 °C 12 °C 1017.1 hPa SE 3.2 km/h 5.8 km/h 66.1% 0.0 mm
06:39 18.5 °C 12.4 °C 1017.1 hPa SSE 3.1 km/h 6.4 km/h 67.5% 0.0 mm
06:44 18.4 °C 12.7 °C 1017.1 hPa SO 2.9 km/h 8 km/h 69.4% 0.0 mm
06:49 18.3 °C 12.4 °C 1017.3 hPa NNE 2.9 km/h 8 km/h 68.2% 0.0 mm
06:54 18.3 °C 12.7 °C 1017.3 hPa ONO 2.9 km/h 8.4 km/h 69.8% 0.0 mm
06:59 18.3 °C 12.6 °C 1017.3 hPa ONO 3 km/h 8 km/h 69.4% 0.0 mm
07:04 18.3 °C 12.5 °C 1017.5 hPa NNO 3.2 km/h 3.7 km/h 69% 0.0 mm
07:09 18.3 °C 12.4 °C 1017.5 hPa NNO 2.8 km/h 5.8 km/h 68.7% 0.0 mm
07:14 18.3 °C 12.5 °C 1017.5 hPa ONO 2.2 km/h 7.6 km/h 68.8% 0.0 mm
07:19 18.3 °C 12.5 °C 1017.5 hPa Oeste 2.5 km/h 8 km/h 69% 0.0 mm
07:24 18.3 °C 12.5 °C 1017.5 hPa OSO 2.9 km/h 8 km/h 69% 0.0 mm
07:29 18.4 °C 12.5 °C 1017.5 hPa OSO 3 km/h 6.4 km/h 68.6% 0.0 mm
07:34 18.5 °C 12.6 °C 1017.6 hPa SO 3.2 km/h 5.8 km/h 68.4% 0.0 mm
07:39 18.7 °C 12.4 °C 1017.6 hPa Este 2.8 km/h 6.4 km/h 67% 0.0 mm
07:44 18.7 °C 12.4 °C 1017.6 hPa ESE 2.2 km/h 6.9 km/h 67% 0.0 mm
07:49 18.7 °C 12.4 °C 1017.6 hPa SSE 2.9 km/h 8 km/h 67% 0.0 mm
07:54 18.7 °C 12.5 °C 1017.6 hPa SSE 3.9 km/h 10 km/h 67% 0.0 mm
07:59 18.8 °C 12.5 °C 1017.6 hPa SSE 4.3 km/h 9.7 km/h 66.9% 0.0 mm
08:04 18.9 °C 12.5 °C 1017.9 hPa SSE 5 km/h 9.7 km/h 66.4% 0.0 mm
08:09 19.1 °C 12.3 °C 1017.9 hPa Sur 5 km/h 10 km/h 64.8% 0.0 mm
08:14 19.3 °C 12 °C 1017.9 hPa SSO 5 km/h 9.7 km/h 63% 0.0 mm
08:19 19.3 °C 11.7 °C 1017.9 hPa SSO 5.6 km/h 11.9 km/h 61.4% 0.0 mm
08:24 19.4 °C 11.7 °C 1017.9 hPa SSO 6.5 km/h 11.3 km/h 61% 0.0 mm
08:29 19.5 °C 11.8 °C 1017.9 hPa SSO 6.5 km/h 9.7 km/h 60.9% 0.0 mm
08:34 19.6 °C 11.6 °C 1018.0 hPa SSO 6.5 km/h 11.9 km/h 60.1% 0.0 mm
08:39 19.7 °C 11.7 °C 1018.0 hPa SSO 6.7 km/h 11.3 km/h 59.9% 0.0 mm
08:44 19.7 °C 11.5 °C 1018.0 hPa Sur 6.9 km/h 13 km/h 59.1% 0.0 mm
08:49 19.8 °C 11.4 °C 1018.2 hPa SSO 7.5 km/h 16.7 km/h 58.4% 0.0 mm
08:54 19.9 °C 11.2 °C 1018.2 hPa SSO 8.4 km/h 16.1 km/h 57.5% 0.0 mm
08:59 20.1 °C 11.3 °C 1018.2 hPa SSO 8.5 km/h 13 km/h 57% 0.0 mm
09:04 20.2 °C 11.3 °C 1018.2 hPa SSE 8.7 km/h 12.9 km/h 56.5% 0.0 mm
09:09 20.4 °C 11.2 °C 1018.2 hPa SSO 8 km/h 11.9 km/h 55.6% 0.0 mm
09:14 20.6 °C 11.3 °C 1018.2 hPa SE 6.9 km/h 14 km/h 55.4% 0.0 mm
09:19 20.9 °C 11.3 °C 1018.4 hPa SSE 6.2 km/h 14.8 km/h 54% 0.0 mm
09:24 21.2 °C 11.3 °C 1018.4 hPa Sur 5 km/h 13 km/h 53.4% 0.0 mm
09:29 21.3 °C 11.3 °C 1018.4 hPa SSE 5.3 km/h 11.3 km/h 53% 0.0 mm
09:34 21.5 °C 11.5 °C 1018.4 hPa SSE 5.8 km/h 8 km/h 53% 0.0 mm
09:39 22 °C 11.6 °C 1018.4 hPa SSE 3.5 km/h 6.4 km/h 51.7% 0.0 mm
09:44 22.5 °C 11.5 °C 1018.4 hPa Calm   8.4 km/h 49.8% 0.0 mm
09:49 22.7 °C 11.4 °C 1018.4 hPa SSE 1.5 km/h 8.4 km/h 49% 0.0 mm
09:54 22.7 °C 11.5 °C 1018.2 hPa SSE 3.9 km/h 8 km/h 49% 0.0 mm
09:59 23 °C 11.7 °C 1018.2 hPa ESE 3.6 km/h 9.5 km/h 49% 0.0 mm
10:04 23.2 °C 11.9 °C 1018.3 hPa ENE 3.2 km/h 9.7 km/h 49% 0.0 mm
10:09 23.4 °C 12 °C 1018.3 hPa NE 3.2 km/h 10 km/h 48.7% 0.0 mm
10:14 23.7 °C 12 °C 1018.3 hPa ENE 3.2 km/h 17.2 km/h 48% 0.0 mm
10:19 23.6 °C 12 °C 1018.4 hPa Este 4.6 km/h 17.7 km/h 48% 0.0 mm
10:24 23.6 °C 12 °C 1018.4 hPa NE 6.9 km/h 17.2 km/h 48.2% 0.0 mm
10:29 23.4 °C 12 °C 1018.4 hPa NE 8.6 km/h 17.7 km/h 48.9% 0.0 mm
10:34 23.5 °C 12.1 °C 1018.4 hPa ENE 11.1 km/h 24.1 km/h 48.9% 0.0 mm
10:39 23.6 °C 12.2 °C 1018.4 hPa NE 10.8 km/h 24.1 km/h 48.6% 0.0 mm
10:44 23.8 °C 12.3 °C 1018.4 hPa NE 10.3 km/h 24.1 km/h 48.8% 0.0 mm
10:49 24.2 °C 12.6 °C 1018.4 hPa NE 10.3 km/h 22.2 km/h 48.4% 0.0 mm
10:54 24.3 °C 12.5 °C 1018.4 hPa ENE 10.3 km/h 22.5 km/h 47.7% 0.0 mm
10:59 24.3 °C 12.6 °C 1018.4 hPa NE 10.2 km/h 20.9 km/h 47.9% 0.0 mm
11:04 24.6 °C 12.9 °C 1018.5 hPa ENE 10 km/h 24.5 km/h 48.2% 0.0 mm
11:09 24.7 °C 13.7 °C 1018.5 hPa NE 10.7 km/h 33.3 km/h 50.3% 0.0 mm
11:14 24.7 °C 14.4 °C 1018.5 hPa ENE 11.9 km/h 33.8 km/h 52.7% 0.0 mm
11:19 24.4 °C 15.1 °C 1018.5 hPa ENE 14.3 km/h 33.8 km/h 56% 0.0 mm
11:24 24.2 °C 15.3 °C 1018.5 hPa ENE 18 km/h 35.2 km/h 57.5% 0.0 mm
11:29 24.1 °C 14.8 °C 1018.5 hPa ENE 18.7 km/h 35.4 km/h 56.1% 0.0 mm
11:34 24.1 °C 14.2 °C 1018.6 hPa ENE 19.8 km/h 34.6 km/h 54% 0.0 mm
11:39 24.2 °C 14 °C 1018.6 hPa NE 19.1 km/h 37 km/h 53.1% 0.0 mm
11:44 24.2 °C 13.9 °C 1018.6 hPa NE 18 km/h 37 km/h 52.8% 0.0 mm
11:49 24.1 °C 14.1 °C 1018.7 hPa ENE 19.5 km/h 40.7 km/h 53.6% 0.0 mm
11:54 24.2 °C 14.8 °C 1018.7 hPa ENE 21.7 km/h 40.2 km/h 55.7% 0.0 mm
11:59 24.3 °C 14.8 °C 1018.7 hPa NE 20.3 km/h 33.8 km/h 55.2% 0.0 mm
12:04 24.4 °C 14.9 °C 1018.7 hPa ENE 18.4 km/h 35.2 km/h 55.6% 0.0 mm
12:09 24.3 °C 15.3 °C 1018.7 hPa ENE 18.4 km/h 37 km/h 56.9% 0.0 mm
12:14 24.2 °C 15.4 °C 1018.7 hPa ENE 18.4 km/h 40.7 km/h 58.1% 0.0 mm
12:19 24.1 °C 15.6 °C 1018.7 hPa ENE 18.9 km/h 40.2 km/h 59% 0.0 mm
12:24 24.3 °C 15.7 °C 1018.6 hPa NE 19.8 km/h 38.1 km/h 58.9% 0.0 mm
12:29 24.1 °C 15.5 °C 1018.6 hPa ENE 19.1 km/h 38.9 km/h 58.6% 0.0 mm
12:34 24.1 °C 15.5 °C 1018.6 hPa ENE 18 km/h 37 km/h 58.8% 0.0 mm
12:39 24.2 °C 15.6 °C 1018.6 hPa ENE 17.7 km/h 37 km/h 58.8% 0.0 mm
12:44 24.2 °C 15.3 °C 1018.6 hPa NE 17.2 km/h 35.2 km/h 57.7% 0.0 mm
12:49 24.1 °C 15.2 °C 1018.6 hPa ENE 18.3 km/h 37.8 km/h 57.3% 0.0 mm
12:54 24.2 °C 15.2 °C 1018.6 hPa NE 19.8 km/h 38.9 km/h 57% 0.0 mm
12:59 24.4 °C 15.1 °C 1018.6 hPa NE 19.8 km/h 38.9 km/h 56.1% 0.0 mm
13:04 24.5 °C 14.9 °C 1018.6 hPa NE 19.8 km/h 37 km/h 55.1% 0.0 mm
13:09 24.4 °C 15.1 °C 1018.5 hPa NE 19.3 km/h 37 km/h 56% 0.0 mm
13:14 24.6 °C 15.2 °C 1018.5 hPa NE 18.4 km/h 33.8 km/h 56% 0.0 mm
13:19 24.6 °C 15.3 °C 1018.5 hPa ENE 17.5 km/h 37 km/h 56.2% 0.0 mm
13:24 24.5 °C 14.9 °C 1018.4 hPa NE 16.1 km/h 37 km/h 55.4% 0.0 mm
13:29 24.5 °C 14.9 °C 1018.4 hPa ENE 17.7 km/h 41.2 km/h 55.1% 0.0 mm
13:34 24.6 °C 15 °C 1018.4 hPa ENE 20.1 km/h 41.8 km/h 55% 0.0 mm
13:39 24.8 °C 15.1 °C 1018.4 hPa ENE 19.7 km/h 38.9 km/h 54.8% 0.0 mm
13:44 24.9 °C 15 °C 1018.4 hPa Este 19 km/h 35.9 km/h 54.3% 0.0 mm
13:49 25 °C 15 °C 1018.4 hPa NE 17.6 km/h 35.4 km/h 53.8% 0.0 mm
13:54 25.1 °C 14.9 °C 1018.2 hPa ENE 15.6 km/h 37 km/h 53.2% 0.0 mm
13:59 25.1 °C 14.7 °C 1018.2 hPa NE 17.3 km/h 39.6 km/h 52.5% 0.0 mm
14:04 24.8 °C 14.9 °C 1018.2 hPa NE 19.8 km/h 40.2 km/h 54.2% 0.0 mm
14:09 24.8 °C 15.1 °C 1018.1 hPa ENE 19.8 km/h 35.4 km/h 54.7% 0.0 mm
14:14 24.8 °C 15 °C 1018.1 hPa ENE 19.8 km/h 41.2 km/h 54.5% 0.0 mm
14:19 24.7 °C 14.9 °C 1018.1 hPa NE 20.3 km/h 41.8 km/h 54.2% 0.0 mm
14:24 24.8 °C 15.2 °C 1017.9 hPa ENE 20.9 km/h 40.2 km/h 55.4% 0.0 mm
14:29 24.8 °C 15.1 °C 1017.9 hPa NE 19.7 km/h 35.4 km/h 54.6% 0.0 mm
14:34 24.9 °C 15.1 °C 1017.9 hPa NE 18 km/h 41.2 km/h 54.4% 0.0 mm
14:39 24.6 °C 15.2 °C 1017.9 hPa NE 19.6 km/h 41.8 km/h 55.8% 0.0 mm
14:44 24.4 °C 15.2 °C 1017.9 hPa NE 22.1 km/h 38.9 km/h 56.4% 0.0 mm
14:49 24.4 °C 15.4 °C 1017.9 hPa ENE 21.6 km/h 38.6 km/h 57.1% 0.0 mm
14:54 24.7 °C 15.5 °C 1017.8 hPa ENE 20.9 km/h 36.2 km/h 56.4% 0.0 mm
14:59 24.7 °C 15.3 °C 1017.8 hPa NE 20.1 km/h 39.9 km/h 56% 0.0 mm
15:04 24.6 °C 15.3 °C 1017.8 hPa NE 19 km/h 40.7 km/h 56.4% 0.0 mm
15:09 24.7 °C 15.4 °C 1017.6 hPa NE 19.4 km/h 40.7 km/h 56.2% 0.0 mm
15:14 24.4 °C 15.3 °C 1017.6 hPa NE 20.1 km/h 40.7 km/h 56.8% 0.0 mm
15:19 24.4 °C 15.5 °C 1017.6 hPa ENE 20 km/h 38.9 km/h 57.6% 0.0 mm
15:24 24.3 °C 15.5 °C 1017.4 hPa NE 19.8 km/h 39.6 km/h 57.7% 0.0 mm
15:29 24.4 °C 15.5 °C 1017.4 hPa ENE 21.2 km/h 40.2 km/h 57.6% 0.0 mm
15:34 24.6 °C 15.4 °C 1017.4 hPa ENE 23.3 km/h 38.6 km/h 56.9% 0.0 mm
15:39 24.5 °C 15.2 °C 1017.4 hPa ENE 22 km/h 40.7 km/h 56.3% 0.0 mm
15:44 24.3 °C 15.3 °C 1017.4 hPa ENE 20.1 km/h 40.2 km/h 57.2% 0.0 mm
15:49 24.4 °C 15.4 °C 1017.4 hPa NE 19.4 km/h 32.2 km/h 57% 0.0 mm
15:54 24.6 °C 15.1 °C 1017.2 hPa NE 18.4 km/h 33.5 km/h 55.6% 0.0 mm
15:59 24.7 °C 15 °C 1017.2 hPa NE 19 km/h 33.8 km/h 54.9% 0.0 mm
16:04 24.5 °C 14.6 °C 1017.2 hPa NE 19.8 km/h 46.3 km/h 54.2% 0.0 mm
16:09 24.3 °C 14.7 °C 1017.2 hPa NE 21.9 km/h 46.7 km/h 55% 0.0 mm
16:14 24.4 °C 14.8 °C 1017.2 hPa NE 25.1 km/h 43.5 km/h 55% 0.0 mm
16:19 24.6 °C 15 °C 1017.2 hPa NE 23.9 km/h 35.4 km/h 55.1% 0.0 mm
16:24 24.5 °C 15.1 °C 1017.0 hPa NE 22.1 km/h 35.4 km/h 55.9% 0.0 mm
16:29 24.4 °C 15.3 °C 1017.0 hPa NE 21.6 km/h 35.4 km/h 56.8% 0.0 mm
16:34 24.6 °C 15.3 °C 1017.0 hPa NE 20.9 km/h 37.8 km/h 56.4% 0.0 mm
16:39 24.6 °C 15.4 °C 1017.0 hPa NE 19.9 km/h 37 km/h 56.6% 0.0 mm
16:44 24.6 °C 15.2 °C 1017.0 hPa NE 18.4 km/h 40.7 km/h 55.9% 0.0 mm
16:49 24.4 °C 14.9 °C 1017.0 hPa NE 18.9 km/h 40.2 km/h 55.4% 0.0 mm
16:54 24.4 °C 15 °C 1016.8 hPa NE 19.8 km/h 39.6 km/h 56% 0.0 mm
16:59 24.3 °C 14.9 °C 1016.8 hPa NE 22 km/h 40.2 km/h 55.9% 0.0 mm
17:04 24.2 °C 14.9 °C 1016.8 hPa NE 25.1 km/h 41.2 km/h 56% 0.0 mm
17:09 24.3 °C 14.8 °C 1016.6 hPa NE 24.9 km/h 41.8 km/h 55.3% 0.0 mm
17:14 24.3 °C 14.6 °C 1016.6 hPa NE 24.5 km/h 42.6 km/h 55% 0.0 mm
17:19 24.2 °C 14.8 °C 1016.6 hPa NE 24.9 km/h 42.6 km/h 55.7% 0.0 mm
17:24 24.1 °C 14.7 °C 1016.6 hPa NE 25.6 km/h 42.6 km/h 55.8% 0.0 mm
17:29 24.3 °C 14.8 °C 1016.6 hPa NE 24.8 km/h 38.6 km/h 55.3% 0.0 mm
17:34 24.4 °C 14.7 °C 1016.6 hPa NE 23.7 km/h 40.7 km/h 55% 0.0 mm
17:39 24.3 °C 14.8 °C 1016.4 hPa NE 23.2 km/h 40.2 km/h 55.2% 0.0 mm
17:44 24.3 °C 14.8 °C 1016.4 hPa NE 22.5 km/h 40.7 km/h 55.6% 0.0 mm
17:49 24.1 °C 14.8 °C 1016.4 hPa NE 22.8 km/h 40.7 km/h 55.9% 0.0 mm
17:54 24 °C 14.7 °C 1016.4 hPa NE 23.3 km/h 40.2 km/h 56% 0.0 mm
17:59 24 °C 14.7 °C 1016.4 hPa NE 24.1 km/h 41.2 km/h 56% 0.0 mm
18:04 23.9 °C 14.6 °C 1016.4 hPa NE 25.1 km/h 41.8 km/h 56% 0.0 mm
18:09 23.9 °C 14.7 °C 1016.3 hPa NE 24.9 km/h 38.6 km/h 56.4% 0.0 mm
18:14 23.9 °C 14.8 °C 1016.3 hPa NE 24.5 km/h 37 km/h 56.7% 0.0 mm
18:19 24.1 °C 14.8 °C 1016.3 hPa NE 24 km/h 40.7 km/h 56% 0.0 mm
18:24 24.2 °C 14.8 °C 1016.3 hPa ENE 23.3 km/h 40.2 km/h 55.7% 0.0 mm
18:29 24.3 °C 14.6 °C 1016.3 hPa NE 22.4 km/h 37 km/h 55% 0.0 mm
18:34 24.2 °C 14.5 °C 1016.3 hPa NE 20.9 km/h 37 km/h 54.8% 0.0 mm
18:39 24.2 °C 14.4 °C 1016.3 hPa NE 21.4 km/h 37 km/h 54.4% 0.0 mm
18:44 24.3 °C 14.4 °C 1016.3 hPa NE 22.1 km/h 37 km/h 54% 0.0 mm
18:49 24.3 °C 14.4 °C 1016.4 hPa NE 20.6 km/h 32.2 km/h 54% 0.0 mm
18:54 24.1 °C 14.3 °C 1016.4 hPa NE 18.4 km/h 35.9 km/h 54.2% 0.0 mm
18:59 24 °C 14.2 °C 1016.4 hPa NE 19.9 km/h 35.4 km/h 54.4% 0.0 mm
19:04 23.9 °C 14.2 °C 1016.4 hPa NE 22.1 km/h 33.8 km/h 54.6% 0.0 mm
19:09 23.9 °C 14.3 °C 1016.3 hPa NE 21.3 km/h 33.8 km/h 55% 0.0 mm
19:14 23.9 °C 14.3 °C 1016.3 hPa NE 20.1 km/h 32.2 km/h 55% 0.0 mm
19:19 23.8 °C 14.3 °C 1016.3 hPa NE 19.4 km/h 33.3 km/h 55% 0.0 mm
19:24 23.8 °C 14.2 °C 1016.1 hPa NE 18.4 km/h 33.8 km/h 55% 0.0 mm
19:29 23.7 °C 14.1 °C 1016.1 hPa NE 18.6 km/h 33.8 km/h 55% 0.0 mm
19:34 23.7 °C 14.1 °C 1016.2 hPa NE 19 km/h 29.6 km/h 55% 0.0 mm
19:39 23.7 °C 14.1 °C 1016.2 hPa NE 17.8 km/h 29 km/h 54.8% 0.0 mm
19:44 23.8 °C 13.7 °C 1016.2 hPa NE 16.1 km/h 28.2 km/h 53.3% 0.0 mm
19:49 23.7 °C 13.4 °C 1016.2 hPa NE 16.2 km/h 29.8 km/h 52.5% 0.0 mm
19:54 23.6 °C 13.2 °C 1016.2 hPa NE 16.4 km/h 30.6 km/h 52.2% 0.0 mm
19:59 23.5 °C 13.1 °C 1016.2 hPa NE 16.8 km/h 27.4 km/h 52% 0.0 mm
20:04 23.6 °C 13 °C 1016.2 hPa NE 17.2 km/h 25.7 km/h 51.5% 0.0 mm
20:09 23.6 °C 12.9 °C 1016.2 hPa NE 16.2 km/h 24.1 km/h 51% 0.0 mm
20:14 23.6 °C 12.7 °C 1016.2 hPa NE 14.8 km/h 22.5 km/h 50.4% 0.0 mm
20:19 23.6 °C 12.6 °C 1016.2 hPa NE 14.3 km/h 22.5 km/h 50% 0.0 mm
20:24 23.7 °C 12.5 °C 1016.2 hPa NE 13.7 km/h 20.9 km/h 49.3% 0.0 mm
20:29 23.8 °C 12.4 °C 1016.2 hPa NE 13.4 km/h 20.9 km/h 49% 0.0 mm
20:34 23.8 °C 12.4 °C 1016.2 hPa NE 13 km/h 20.9 km/h 49% 0.0 mm
20:39 23.8 °C 12.4 °C 1016.0 hPa NE 13.3 km/h 24.1 km/h 49% 0.0 mm
20:44 23.7 °C 12.3 °C 1016.0 hPa NE 13.7 km/h 24.1 km/h 49% 0.0 mm
20:49 23.7 °C 12.4 °C 1016.0 hPa NE 12.1 km/h 16.7 km/h 49.2% 0.0 mm
20:54 23.7 °C 12.6 °C 1016.0 hPa NE 9.5 km/h 16.1 km/h 50% 0.0 mm
20:59 23.6 °C 12.6 °C 1016.0 hPa NE 8.4 km/h 13 km/h 50% 0.0 mm
21:04 23.5 °C 12.5 °C 1016.0 hPa ENE 6.9 km/h 13.7 km/h 50.1% 0.0 mm
21:09 23.4 °C 12.7 °C 1015.9 hPa ENE 6.9 km/h 14.5 km/h 51% 0.0 mm
21:14 23.3 °C 12.6 °C 1015.9 hPa ESE 6.9 km/h 12.9 km/h 51% 0.0 mm
21:19 23.3 °C 12.6 °C 1015.9 hPa Este 6.2 km/h 11.9 km/h 51% 0.0 mm
21:24 23.2 °C 12.5 °C 1015.9 hPa Este 5 km/h 11.3 km/h 51% 0.0 mm
21:29 23.1 °C 12.4 °C 1015.9 hPa ESE 5.6 km/h 11.3 km/h 51% 0.0 mm
21:34 23 °C 12.4 °C 1016.0 hPa ESE 6.5 km/h 10 km/h 51% 0.0 mm
21:39 22.9 °C 12.2 °C 1016.0 hPa ESE 6.2 km/h 11.1 km/h 51% 0.0 mm
21:44 22.9 °C 12.3 °C 1016.0 hPa ESE 5.8 km/h 11.3 km/h 51.3% 0.0 mm
21:49 22.9 °C 12.2 °C 1016.1 hPa SE 5.8 km/h 9.7 km/h 51% 0.0 mm
21:54 23 °C 12.3 °C 1016.1 hPa ESE 5.8 km/h 11.1 km/h 51% 0.0 mm
21:59 23 °C 12.2 °C 1016.1 hPa ESE 5.8 km/h 11.3 km/h 50.6% 0.0 mm
22:04 23 °C 12.3 °C 1016.3 hPa ESE 5.8 km/h 9.7 km/h 50.9% 0.0 mm
22:09 22.9 °C 12 °C 1016.3 hPa Este 5.5 km/h 8.4 km/h 50.2% 0.0 mm
22:14 22.9 °C 12.2 °C 1016.3 hPa SE 5 km/h 8.4 km/h 50.8% 0.0 mm
22:19 22.9 °C 12.1 °C 1016.4 hPa ESE 5 km/h 10 km/h 50.7% 0.0 mm
22:24 22.8 °C 12.2 °C 1016.4 hPa ESE 5 km/h 11.1 km/h 51% 0.0 mm
22:29 22.8 °C 12.1 °C 1016.4 hPa Este 5.3 km/h 11.3 km/h 51% 0.0 mm
22:34 22.7 °C 12.2 °C 1016.8 hPa Este 5.8 km/h 8 km/h 51.5% 0.0 mm
22:39 22.6 °C 12.2 °C 1016.8 hPa Este 5.5 km/h 8.4 km/h 52.1% 0.0 mm
22:44 22.4 °C 12.4 °C 1016.8 hPa Este 5 km/h 8.4 km/h 53% 0.0 mm
22:49 22.4 °C 12.5 °C 1016.9 hPa ENE 5 km/h 9.5 km/h 53.6% 0.0 mm
22:54 22.4 °C 12.6 °C 1016.9 hPa Este 5 km/h 9.7 km/h 54% 0.0 mm
22:59 22.3 °C 12.6 °C 1016.9 hPa Este 4.8 km/h 9.3 km/h 54% 0.0 mm
23:04 22.3 °C 12.6 °C 1017.2 hPa ESE 4.7 km/h 9.7 km/h 54% 0.0 mm
23:09 22.3 °C 12.6 °C 1017.2 hPa Este 4.1 km/h 8.4 km/h 54% 0.0 mm
23:14 22.3 °C 12.5 °C 1017.2 hPa Este 3.2 km/h 9.3 km/h 54% 0.0 mm
23:19 22.3 °C 12.5 °C 1017.2 hPa ESE 3.9 km/h 9.7 km/h 54% 0.0 mm
23:24 22.3 °C 12.5 °C 1017.1 hPa ESE 5 km/h 9.7 km/h 54% 0.0 mm
23:29 22.2 °C 12.5 °C 1017.1 hPa ESE 5.3 km/h 9.7 km/h 54% 0.0 mm
23:34 22.2 °C 12.4 °C 1017.1 hPa ESE 5.8 km/h 9.7 km/h 54% 0.0 mm
23:39 22.2 °C 12.4 °C 1017.1 hPa Este 5.3 km/h 11.1 km/h 54% 0.0 mm
23:44 22.1 °C 12.3 °C 1017.1 hPa ESE 4.7 km/h 11.3 km/h 54% 0.0 mm
23:49 22.1 °C 12.6 °C 1017.1 hPa Este 4.7 km/h 9.7 km/h 54.9% 0.0 mm
23:54 21.9 °C 12.5 °C 1016.9 hPa Este 4.7 km/h 8.7 km/h 55% 0.0 mm
23:59 21.8 °C 12.5 °C 1016.9 hPa ESE 4.8 km/h 11.1 km/h 55.5% 0.0 mm
Murcia-Puente Tocinos, España
Compliments of Weather Underground - 3 mb

La estación de MeteoMurcia.com, publica sus datos en los siguientes proyectos:

Weather Underground PWS IMURCIAP2 Meteoclimatic www.awekas.at

W3Counter
Web Analytics